Aérodrome :
LOGIN :

S'inscrire | Disclaimer

   EN    FR    IT 

 










Légende :    VFR   VFR Marginal   IFR   IFR Intensif   IFR Très Intensif
Visi : 
Plafond : 
>= 8 km
>= 3000ft
5 à 8 km
1000 à 3000 ft
1500m à 5 km
500 à 1000 ft
800 à 1500m
200 à 500 ft
< 800m
< 200 ft
Symboles :   Orages  Brouillard  Fortes neiges  Fortes précipitations  Vent > 20 kt
SIGMETs :   Divers  Orages  Givrage  Turbulence  Onde Orograph.  Cendres Volcan.







- Altitude de l'aérodrome : 626 ft
- Code IATA : CRA


LRCV - Craiova

DERNIER METAR :
  • 162300Z 25002KT 5000 BR NSC 00/M01 Q1028

METARs EXPIRÉS :
  • 162230Z 25002KT 6000 NSC 01/M01 Q1028
  • 162200Z 23003KT 7000 NSC 02/M01 Q1028
  • 162130Z AUTO 22002KT 170V270 9000 NCD 02/M01 Q1028
  • 162100Z AUTO 23005KT 9999 NCD 03/M01 Q1028
  • 162030Z AUTO 23004KT 9999 NCD 04/M00 Q1028

TAF TAF LRCV
Valide du 16 à 21h jusqu'au 17 à 06h UTC


162000Z 1621/1706 VRB04KT CAVOK
BECMG 1623/1701 5000 BR
PROB30
TEMPO 1702/1706 3000 BR
Pas de NOTAMs connus pour ce terrain.



MET'MAP, la Météo Aéronautique d'un coup d'oeil ! - Copyright ORBIFLY Décembre 2007 - Disclaimer

ORBIFLY MET'MAP TEAM :

Programmation & Développement : Alexandra Zaïnal
Conception & Développement : Baudouin d'Aumeries
Co-Programmation & Développement : Marc-Olivier Méhu
Soutien technique & logistique : Manuel Goepfert

Contact : metmap@orbifly.com




SOURCES & CREDITS :

   NOAA